createdAt,value
2022-12-14T00:01:54.179Z,46.22
2022-12-14T00:04:22.065Z,45.84
2022-12-14T00:06:49.769Z,46.06
2022-12-14T00:09:17.530Z,45.69
2022-12-14T00:11:45.260Z,45.65
2022-12-14T00:14:13.020Z,45.62
2022-12-14T00:16:40.754Z,45.47
2022-12-14T00:19:13.841Z,45.79
2022-12-14T00:21:41.575Z,46.01
2022-12-14T00:24:10.535Z,46.24
2022-12-14T00:26:38.314Z,45.69
2022-12-14T00:29:06.111Z,46.08
2022-12-14T00:31:33.965Z,45.63
2022-12-14T00:34:01.766Z,46.17
2022-12-14T00:36:31.566Z,45.87
2022-12-14T00:39:00.006Z,46.16
2022-12-14T00:41:27.941Z,46.31
2022-12-14T00:43:55.826Z,45.79
2022-12-14T00:46:23.749Z,46.35
2022-12-14T00:48:51.627Z,46.15
2022-12-14T00:51:19.392Z,46.21
2022-12-14T00:53:47.167Z,45.86
2022-12-14T00:56:14.930Z,46.16
2022-12-14T00:58:42.648Z,46.45
2022-12-14T01:01:13.612Z,46.35
2022-12-14T01:03:42.932Z,46.38
2022-12-14T01:06:20.263Z,46.40
2022-12-14T01:08:48.769Z,46.64
2022-12-14T01:11:16.979Z,46.89
2022-12-14T01:13:44.739Z,47.00
2022-12-14T01:16:17.782Z,46.84
2022-12-14T01:18:45.759Z,46.49
2022-12-14T01:21:19.949Z,46.82
2022-12-14T01:23:51.339Z,46.53
2022-12-14T01:26:19.971Z,46.53
2022-12-14T01:28:52.451Z,46.68
2022-12-14T01:31:26.156Z,46.78
2022-12-14T01:33:54.404Z,46.46
2022-12-14T01:36:28.686Z,46.80
2022-12-14T01:39:00.252Z,46.44
2022-12-14T01:41:32.209Z,46.72
2022-12-14T01:44:07.638Z,46.81
2022-12-14T01:47:00.340Z,46.52
2022-12-14T01:49:41.460Z,46.66
2022-12-14T01:52:44.057Z,47.08
2022-12-14T01:55:27.717Z,46.82
2022-12-14T01:58:22.076Z,46.90
2022-12-14T02:00:54.360Z,46.42
2022-12-14T02:03:36.886Z,46.64
2022-12-14T02:06:22.060Z,46.80
2022-12-14T02:08:52.470Z,46.50
2022-12-14T02:11:35.780Z,46.83
2022-12-14T02:14:04.291Z,46.84
2022-12-14T02:16:32.408Z,46.27
2022-12-14T02:19:00.238Z,46.58
2022-12-14T02:21:51.825Z,46.78
2022-12-14T02:24:44.401Z,46.74
2022-12-14T02:27:42.808Z,46.93
2022-12-14T02:30:22.918Z,46.64
2022-12-14T02:33:08.765Z,46.51
2022-12-14T02:36:05.121Z,46.89
2022-12-14T02:38:54.061Z,46.80
2022-12-14T02:42:01.184Z,46.82
2022-12-14T02:44:38.850Z,46.89
2022-12-14T02:47:38.339Z,46.86
2022-12-14T02:50:12.345Z,46.55
2022-12-14T02:52:57.202Z,47.04
2022-12-14T02:55:30.767Z,46.85
2022-12-14T02:58:03.644Z,46.58
2022-12-14T03:00:35.346Z,46.45
2022-12-14T03:03:06.038Z,46.88
2022-12-14T03:05:34.701Z,46.95
2022-12-14T03:08:12.133Z,46.38
2022-12-14T03:10:51.552Z,46.63
2022-12-14T03:13:53.539Z,46.72
2022-12-14T03:17:00.759Z,46.71
2022-12-14T03:19:38.062Z,46.44
2022-12-14T03:22:17.672Z,47.05
2022-12-14T03:24:55.142Z,46.99
2022-12-14T03:27:35.951Z,46.98
2022-12-14T03:30:10.570Z,46.54
2022-12-14T03:32:57.160Z,47.04
2022-12-14T03:35:33.158Z,46.79
2022-12-14T03:38:24.853Z,46.89
2022-12-14T03:41:22.823Z,46.53
2022-12-14T03:44:44.714Z,46.40
2022-12-14T03:48:27.535Z,46.57
2022-12-14T03:51:22.113Z,46.58
2022-12-14T03:54:16.603Z,46.09
2022-12-14T03:57:05.441Z,46.04
2022-12-14T04:00:12.397Z,46.32
2022-12-14T04:03:15.559Z,45.94
2022-12-14T04:06:03.743Z,45.86
2022-12-14T04:08:47.927Z,45.94
2022-12-14T04:11:38.397Z,45.67
2022-12-14T04:14:39.515Z,45.92
2022-12-14T04:17:33.528Z,45.47
2022-12-14T04:20:17.002Z,45.84
2022-12-14T04:22:52.701Z,45.91
2022-12-14T04:26:07.448Z,45.84
2022-12-14T04:29:19.071Z,45.77
2022-12-14T04:31:54.613Z,45.80
2022-12-14T04:34:26.872Z,45.56
2022-12-14T04:37:03.221Z,45.66
2022-12-14T04:39:50.460Z,46.04
2022-12-14T04:42:21.261Z,45.50
2022-12-14T04:44:58.918Z,45.86
2022-12-14T04:47:33.864Z,45.56
2022-12-14T04:50:42.862Z,45.78
2022-12-14T04:53:17.647Z,45.38
2022-12-14T04:56:09.605Z,46.01
2022-12-14T04:58:38.369Z,45.91
2022-12-14T05:01:31.115Z,45.97
2022-12-14T05:04:31.259Z,46.10
2022-12-14T05:07:54.220Z,46.52
2022-12-14T05:10:42.733Z,46.11
2022-12-14T05:13:43.804Z,46.28
2022-12-14T05:16:23.791Z,46.21
2022-12-14T05:18:51.821Z,46.04
2022-12-14T05:21:39.151Z,46.32
2022-12-14T05:24:07.434Z,46.23
2022-12-14T05:26:35.506Z,46.59
2022-12-14T05:29:03.289Z,46.90
2022-12-14T05:31:31.397Z,46.72
2022-12-14T05:33:59.171Z,46.97
2022-12-14T05:36:26.944Z,46.84
2022-12-14T05:38:54.638Z,47.11
2022-12-14T05:41:24.481Z,47.51
2022-12-14T05:43:52.392Z,47.37
2022-12-14T05:46:20.156Z,47.60
2022-12-14T05:48:49.510Z,47.88
2022-12-14T05:51:18.053Z,47.81
2022-12-14T05:53:45.904Z,47.58
2022-12-14T05:56:14.051Z,47.80
2022-12-14T05:58:41.913Z,48.01
2022-12-14T06:01:17.193Z,48.50
2022-12-14T06:03:47.722Z,48.19
2022-12-14T06:06:15.757Z,48.51
2022-12-14T06:08:46.018Z,48.73
2022-12-14T06:11:20.605Z,48.77
2022-12-14T06:13:48.919Z,48.44
2022-12-14T06:16:23.329Z,48.43
2022-12-14T06:18:54.859Z,48.56
2022-12-14T06:21:30.325Z,48.60
2022-12-14T06:23:58.647Z,48.78
2022-12-14T06:26:28.236Z,49.13
2022-12-14T06:28:57.690Z,48.86
2022-12-14T06:31:29.373Z,48.73
2022-12-14T06:34:02.616Z,49.02
2022-12-14T06:36:34.740Z,48.77
2022-12-14T06:39:16.054Z,49.22
2022-12-14T06:41:48.577Z,49.28
2022-12-14T06:44:16.588Z,48.69
2022-12-14T06:46:44.943Z,48.98
2022-12-14T06:49:15.355Z,48.95
2022-12-14T06:51:44.496Z,49.42
2022-12-14T06:54:13.743Z,49.27
2022-12-14T06:56:44.282Z,49.46
2022-12-14T06:59:13.210Z,49.35
2022-12-14T07:01:42.417Z,49.38
2022-12-14T07:04:10.446Z,49.42
2022-12-14T07:06:40.696Z,49.13
2022-12-14T07:09:12.860Z,49.25
2022-12-14T07:11:42.185Z,49.39
2022-12-14T07:14:16.729Z,49.64
2022-12-14T07:16:48.357Z,49.37
2022-12-14T07:19:18.105Z,49.84
2022-12-14T07:21:45.864Z,49.65
2022-12-14T07:24:13.688Z,49.51
2022-12-14T07:26:41.518Z,50.09
2022-12-14T07:29:11.681Z,49.83
2022-12-14T07:31:39.640Z,49.83
2022-12-14T07:34:07.406Z,49.71
2022-12-14T07:36:35.115Z,49.98
2022-12-14T07:39:02.888Z,50.46
2022-12-14T07:41:31.803Z,50.21
2022-12-14T07:44:00.966Z,50.48
2022-12-14T07:46:30.797Z,50.78
2022-12-14T07:49:00.342Z,50.63
2022-12-14T07:51:38.181Z,50.57
2022-12-14T07:54:06.928Z,50.61
2022-12-14T07:56:39.692Z,50.43
2022-12-14T07:59:15.224Z,50.38
2022-12-14T08:01:44.634Z,50.50
2022-12-14T08:04:16.476Z,50.82
2022-12-14T08:06:50.022Z,50.86
2022-12-14T08:09:20.229Z,51.01
2022-12-14T08:11:48.225Z,50.70
2022-12-14T08:14:19.057Z,50.70
2022-12-14T08:16:48.430Z,50.55
2022-12-14T08:19:18.316Z,50.89
2022-12-14T08:21:46.635Z,50.80
2022-12-14T08:24:17.087Z,50.85
2022-12-14T08:26:49.284Z,51.21
2022-12-14T08:29:18.546Z,51.44
2022-12-14T08:31:46.443Z,51.51
2022-12-14T08:34:16.468Z,51.29
2022-12-14T08:36:44.249Z,51.41
2022-12-14T08:39:13.352Z,51.21
2022-12-14T08:41:41.114Z,51.03
2022-12-14T08:44:09.666Z,51.23
2022-12-14T08:46:40.730Z,51.52
2022-12-14T08:49:08.522Z,51.13
2022-12-14T08:51:39.983Z,51.50
2022-12-14T08:54:07.714Z,51.52
2022-12-14T08:56:35.479Z,51.88
2022-12-14T08:59:03.533Z,51.78
2022-12-14T09:01:33.901Z,51.73
2022-12-14T09:04:05.747Z,51.61
2022-12-14T09:06:37.828Z,51.42
2022-12-14T09:09:15.660Z,52.05
2022-12-14T09:11:45.559Z,51.64
2022-12-14T09:14:17.810Z,52.00
2022-12-14T09:16:50.157Z,52.02
2022-12-14T09:19:35.167Z,52.06
2022-12-14T09:22:07.386Z,52.25
2022-12-14T09:24:36.306Z,52.09
2022-12-14T09:27:06.145Z,52.05
2022-12-14T09:29:36.317Z,52.45
2022-12-14T09:32:06.730Z,52.25
2022-12-14T09:34:43.103Z,52.08
2022-12-14T09:37:20.901Z,51.96
2022-12-14T09:39:50.111Z,52.01
2022-12-14T09:43:02.347Z,52.10
2022-12-14T09:45:39.494Z,52.20
2022-12-14T09:48:28.255Z,52.04
2022-12-14T09:51:04.673Z,52.38
2022-12-14T09:53:42.075Z,52.19
2022-12-14T09:56:27.377Z,52.29
2022-12-14T09:59:02.057Z,52.81
2022-12-14T10:05:59.523Z,52.66
2022-12-14T10:09:10.361Z,52.51
2022-12-14T10:12:10.825Z,52.40
2022-12-14T10:15:03.345Z,52.58
2022-12-14T10:18:49.511Z,52.77
2022-12-14T10:21:23.274Z,52.70
2022-12-14T10:24:03.595Z,52.34
2022-12-14T10:27:00.686Z,52.65
2022-12-14T10:29:39.762Z,52.70
2022-12-14T10:32:35.346Z,52.72
2022-12-14T10:35:31.508Z,52.61
2022-12-14T10:38:13.405Z,52.53
2022-12-14T10:40:49.806Z,52.45
2022-12-14T10:43:40.665Z,52.95
2022-12-14T10:46:26.957Z,52.46
2022-12-14T10:49:04.934Z,52.45
2022-12-14T10:51:41.921Z,52.65
2022-12-14T10:54:53.713Z,52.70
2022-12-14T10:57:26.886Z,52.62
2022-12-14T11:00:08.509Z,52.64
2022-12-14T11:02:45.398Z,52.55
2022-12-14T11:05:36.996Z,52.64
2022-12-14T11:08:07.396Z,52.72
2022-12-14T11:10:39.918Z,52.69
2022-12-14T11:13:13.601Z,52.61
2022-12-14T11:15:55.169Z,52.27
2022-12-14T11:18:32.476Z,52.43
2022-12-14T11:21:06.123Z,52.55
2022-12-14T11:23:38.039Z,52.41
2022-12-14T11:26:19.398Z,52.42
2022-12-14T11:28:50.694Z,52.58
2022-12-14T11:31:23.592Z,52.63
2022-12-14T11:33:55.543Z,52.75
2022-12-14T11:36:59.691Z,52.61
2022-12-14T11:39:27.583Z,52.77
2022-12-14T11:41:58.117Z,52.53
2022-12-14T11:44:30.230Z,52.56
2022-12-14T11:46:58.006Z,52.03
2022-12-14T11:49:42.708Z,52.68
2022-12-14T11:52:18.226Z,52.29
2022-12-14T11:54:49.682Z,52.08
2022-12-14T11:57:42.768Z,52.13
2022-12-14T12:00:47.383Z,52.59
2022-12-14T12:03:16.363Z,52.59
2022-12-14T12:05:44.920Z,52.00
2022-12-14T12:08:29.062Z,52.29
2022-12-14T12:11:03.838Z,52.31
2022-12-14T12:13:45.004Z,52.52
2022-12-14T12:16:21.519Z,52.82
2022-12-14T12:19:11.574Z,53.31
2022-12-14T12:21:45.027Z,53.30
2022-12-14T12:24:25.419Z,53.07
2022-12-14T12:27:14.312Z,53.42
2022-12-14T12:29:57.569Z,53.71
2022-12-14T12:32:43.905Z,53.66
2022-12-14T12:35:29.495Z,53.49
2022-12-14T12:38:07.833Z,53.53
2022-12-14T12:40:56.529Z,53.77
2022-12-14T12:43:42.672Z,53.83
2022-12-14T12:46:33.605Z,54.49
2022-12-14T12:49:17.772Z,56.21
2022-12-14T12:51:49.923Z,55.53
2022-12-14T12:54:41.825Z,56.22
2022-12-14T12:57:13.893Z,56.62
2022-12-14T12:59:54.059Z,55.82
2022-12-14T13:02:42.669Z,56.18
2022-12-14T13:05:49.329Z,56.15
2022-12-14T13:08:19.707Z,55.96
2022-12-14T13:13:42.975Z,57.16
2022-12-14T13:16:36.857Z,57.95
2022-12-14T13:19:49.813Z,57.80
2022-12-14T13:22:17.194Z,57.54
2022-12-14T13:24:48.537Z,57.38
2022-12-14T13:28:05.039Z,57.70
2022-12-14T13:31:03.477Z,56.98
2022-12-14T13:33:51.122Z,58.20
2022-12-14T13:36:33.915Z,56.91
2022-12-14T13:39:36.562Z,58.73
2022-12-14T13:42:41.168Z,58.71
2022-12-14T13:45:40.457Z,57.92
2022-12-14T13:48:25.085Z,58.72
2022-12-14T13:51:06.115Z,59.32
2022-12-14T13:53:48.556Z,59.17
2022-12-14T13:56:32.723Z,59.94
2022-12-14T13:59:06.424Z,59.91
2022-12-14T14:01:46.415Z,59.26
2022-12-14T14:04:17.111Z,59.75
2022-12-14T14:06:47.856Z,60.35
2022-12-14T14:09:33.503Z,62.04
2022-12-14T14:12:22.417Z,60.82
2022-12-14T14:15:31.994Z,62.38
2022-12-14T14:18:32.484Z,62.14
2022-12-14T14:21:12.778Z,60.45
2022-12-14T14:24:18.121Z,61.80
2022-12-14T14:27:19.059Z,61.85
2022-12-14T14:29:51.804Z,61.33
2022-12-14T14:32:31.422Z,61.80
2022-12-14T14:35:01.796Z,61.24
2022-12-14T14:37:37.140Z,60.79
2022-12-14T14:40:22.010Z,61.06
2022-12-14T14:43:04.789Z,60.27
2022-12-14T14:45:54.890Z,60.74
2022-12-14T14:48:51.711Z,61.09
2022-12-14T14:51:29.551Z,61.45
2022-12-14T14:55:03.608Z,62.09
2022-12-14T14:57:56.732Z,61.00
2022-12-14T15:00:24.867Z,59.97
2022-12-14T15:02:54.869Z,60.22
2022-12-14T15:05:41.997Z,61.21
2022-12-14T15:08:39.722Z,60.49
2022-12-14T15:11:21.391Z,62.03
2022-12-14T15:14:00.995Z,61.64
2022-12-14T15:16:42.401Z,62.18
2022-12-14T15:19:33.628Z,63.05
2022-12-14T15:22:08.620Z,60.85
2022-12-14T15:24:43.026Z,61.71
2022-12-14T15:27:31.059Z,61.67
2022-12-14T15:30:12.431Z,62.06
2022-12-14T15:32:47.607Z,61.10
2022-12-14T15:35:28.552Z,60.56
2022-12-14T15:38:01.783Z,60.47
2022-12-14T15:40:31.301Z,59.85
2022-12-14T15:43:20.895Z,59.67
2022-12-14T15:45:53.257Z,59.50
2022-12-14T15:48:30.100Z,59.97
2022-12-14T15:51:06.004Z,61.02
2022-12-14T15:53:42.562Z,61.63
2022-12-14T15:56:37.006Z,61.72
2022-12-14T15:59:19.544Z,61.07
2022-12-14T16:01:54.383Z,61.39
2022-12-14T16:04:25.863Z,60.74
2022-12-14T16:07:12.596Z,60.98
2022-12-14T16:09:53.235Z,60.60
2022-12-14T16:12:46.876Z,61.77
2022-12-14T16:15:24.041Z,61.06
2022-12-14T16:18:02.500Z,60.73
2022-12-14T16:20:38.845Z,60.60
2022-12-14T16:23:15.406Z,60.77
2022-12-14T16:25:58.186Z,60.51
2022-12-14T16:28:36.072Z,59.85
2022-12-14T16:31:20.979Z,59.55
2022-12-14T16:34:08.734Z,59.86
2022-12-14T16:36:37.958Z,58.99
2022-12-14T16:39:28.740Z,58.69
2022-12-14T16:42:01.743Z,58.80
2022-12-14T16:44:29.387Z,59.54
2022-12-14T16:47:02.868Z,58.87
2022-12-14T16:49:39.639Z,58.59
2022-12-14T16:52:10.267Z,58.99
2022-12-14T16:54:38.870Z,58.05
2022-12-14T16:57:15.760Z,58.39
2022-12-14T16:59:47.010Z,58.81
2022-12-14T17:02:29.344Z,58.92
2022-12-14T17:05:00.192Z,59.03
2022-12-14T17:07:30.950Z,58.60
2022-12-14T17:09:59.348Z,58.46
2022-12-14T17:12:27.314Z,57.90
2022-12-14T17:14:55.253Z,58.07
2022-12-14T17:17:33.490Z,57.99
2022-12-14T17:20:03.971Z,57.63
2022-12-14T17:22:33.724Z,57.37
2022-12-14T17:25:02.631Z,57.82
2022-12-14T17:27:31.139Z,57.80
2022-12-14T17:29:58.910Z,57.31
2022-12-14T17:32:30.734Z,57.50
2022-12-14T17:34:59.513Z,57.27
2022-12-14T17:37:34.071Z,57.11
2022-12-14T17:40:04.955Z,57.21
2022-12-14T17:42:32.955Z,57.05
2022-12-14T17:45:00.920Z,57.02
2022-12-14T17:47:28.793Z,57.12
2022-12-14T17:49:56.636Z,57.03
2022-12-14T17:52:30.409Z,56.90
2022-12-14T17:54:59.216Z,57.10
2022-12-14T17:57:27.112Z,56.35
2022-12-14T18:00:13.592Z,56.93
2022-12-14T18:02:42.888Z,57.16
2022-12-14T18:05:21.805Z,56.98
2022-12-14T18:07:50.348Z,57.83
2022-12-14T18:10:18.570Z,57.21
2022-12-14T18:12:46.738Z,57.52
2022-12-14T18:15:24.503Z,57.50
2022-12-14T18:17:52.610Z,57.32
2022-12-14T18:20:23.773Z,57.23
2022-12-14T18:22:52.535Z,57.54
2022-12-14T18:25:36.629Z,57.86
2022-12-14T18:28:07.014Z,57.81
2022-12-14T18:30:44.479Z,57.28
2022-12-14T18:33:25.105Z,57.54
2022-12-14T18:35:55.481Z,57.38
2022-12-14T18:38:24.540Z,57.08
2022-12-14T18:40:55.000Z,57.25
2022-12-14T18:43:26.352Z,57.13
2022-12-14T18:45:55.574Z,57.44
2022-12-14T18:48:25.008Z,57.90
2022-12-14T18:50:55.389Z,57.19
2022-12-14T18:53:24.831Z,57.02
2022-12-14T18:55:53.280Z,57.64
2022-12-14T18:58:26.437Z,58.17
2022-12-14T19:00:57.847Z,58.64
2022-12-14T19:03:31.116Z,59.54
2022-12-14T19:09:03.420Z,58.21
2022-12-14T19:11:38.746Z,58.02
2022-12-14T19:14:06.942Z,58.23
2022-12-14T19:16:34.978Z,57.86
2022-12-14T19:19:03.132Z,57.77
2022-12-14T19:21:31.556Z,57.35
2022-12-14T19:24:00.738Z,58.43
2022-12-14T19:26:29.447Z,57.55
2022-12-14T19:28:57.547Z,57.80
2022-12-14T19:31:25.383Z,57.05
2022-12-14T19:33:53.849Z,57.64
2022-12-14T19:36:21.627Z,57.35
2022-12-14T19:38:49.809Z,56.85
2022-12-14T19:41:20.527Z,57.07
2022-12-14T19:43:48.881Z,57.30
2022-12-14T19:46:18.030Z,56.95
2022-12-14T19:48:46.464Z,57.07
2022-12-14T19:51:15.386Z,56.87
2022-12-14T19:53:45.858Z,57.35
2022-12-14T19:56:18.644Z,57.36
2022-12-14T19:58:47.814Z,57.06
2022-12-14T20:01:17.872Z,57.33
2022-12-14T20:03:46.041Z,57.40
2022-12-14T20:06:13.874Z,56.80
2022-12-14T20:08:41.687Z,56.76
2022-12-14T20:11:11.300Z,57.12
2022-12-14T20:13:39.119Z,56.07
2022-12-14T20:16:07.290Z,56.51
2022-12-14T20:18:35.062Z,56.70
2022-12-14T20:21:08.861Z,56.96
2022-12-14T20:23:38.842Z,57.75
2022-12-14T20:26:15.230Z,57.06
2022-12-14T20:28:43.260Z,56.81
2022-12-14T20:31:15.037Z,57.07
2022-12-14T20:33:43.818Z,56.97
2022-12-14T20:36:12.706Z,56.69
2022-12-14T20:38:40.665Z,56.94
2022-12-14T20:41:12.552Z,56.71
2022-12-14T20:43:43.825Z,56.62
2022-12-14T20:46:31.879Z,56.60
2022-12-14T20:49:03.955Z,56.56
2022-12-14T20:51:35.444Z,56.87
2022-12-14T20:54:05.518Z,56.23
2022-12-14T20:56:37.731Z,56.38
2022-12-14T20:59:06.360Z,56.56
2022-12-14T21:01:38.102Z,56.48
2022-12-14T21:04:07.487Z,56.10
2022-12-14T21:06:40.115Z,56.42
2022-12-14T21:09:15.167Z,56.22
2022-12-14T21:12:05.223Z,56.32
2022-12-14T21:14:42.904Z,56.05
2022-12-14T21:17:11.053Z,55.68
2022-12-14T21:19:39.128Z,55.72
2022-12-14T21:22:10.100Z,55.67
2022-12-14T21:25:01.799Z,55.54
2022-12-14T21:27:28.360Z,56.25
2022-12-14T21:29:56.514Z,56.03
2022-12-14T21:32:24.405Z,56.03
2022-12-14T21:34:52.786Z,55.88
2022-12-14T21:37:20.993Z,55.82
2022-12-14T21:39:54.199Z,56.38
2022-12-14T21:42:24.570Z,56.08
2022-12-14T21:44:53.986Z,56.04
2022-12-14T21:47:29.974Z,55.70
2022-12-14T21:49:58.138Z,56.19
2022-12-14T21:52:28.181Z,55.98
2022-12-14T21:54:58.627Z,56.15
2022-12-14T21:57:49.394Z,55.62
2022-12-14T22:00:18.888Z,55.61
2022-12-14T22:02:46.822Z,56.05
2022-12-14T22:05:14.774Z,55.64
2022-12-14T22:07:42.532Z,55.61
2022-12-14T22:10:10.404Z,55.95
2022-12-14T22:12:38.149Z,55.77
2022-12-14T22:15:06.527Z,55.95
2022-12-14T22:17:34.745Z,56.24
2022-12-14T22:20:02.934Z,56.03
2022-12-14T22:22:30.850Z,56.07
2022-12-14T22:24:59.695Z,56.14
2022-12-14T22:27:27.444Z,55.41
2022-12-14T22:29:55.215Z,55.14
2022-12-14T22:32:22.954Z,55.50
2022-12-14T22:34:50.736Z,55.36
2022-12-14T22:37:18.617Z,55.88
2022-12-14T22:39:47.888Z,55.77
2022-12-14T22:42:16.580Z,55.46
2022-12-14T22:44:44.482Z,55.67
2022-12-14T22:47:12.213Z,56.14
2022-12-14T22:49:40.087Z,55.51
2022-12-14T22:52:07.932Z,55.90
2022-12-14T22:54:39.271Z,55.55
2022-12-14T22:57:15.159Z,55.99
2022-12-14T23:00:01.469Z,56.22
2022-12-14T23:02:31.243Z,55.91
2022-12-14T23:04:59.563Z,55.90
2022-12-14T23:07:27.294Z,55.57
2022-12-14T23:10:13.783Z,55.27
2022-12-14T23:13:00.372Z,55.80
2022-12-14T23:15:47.004Z,56.11
2022-12-14T23:18:33.645Z,56.37
2022-12-14T23:21:28.074Z,55.46
2022-12-14T23:24:14.749Z,56.09
2022-12-14T23:27:07.274Z,55.73
2022-12-14T23:29:55.922Z,55.59
2022-12-14T23:32:42.435Z,56.26
2022-12-14T23:35:28.680Z,55.56
2022-12-14T23:38:15.472Z,55.70
2022-12-14T23:41:02.008Z,55.58
2022-12-14T23:43:48.596Z,55.88
2022-12-14T23:46:35.279Z,55.67
2022-12-14T23:49:21.853Z,55.57
2022-12-14T23:52:08.470Z,56.17
2022-12-14T23:54:55.208Z,55.41
2022-12-14T23:57:41.715Z,55.60
